Time;durP1;ratioP1;P1;durP2;ratioP2;P2;SDS_P1;SDS_P2;PMS_P1;PMS_P2;Temp;Humidity;BMP_temperature;BMP_pressure;BME280_temperature;BME280_humidity;BME280_pressure;Samples;Min_cycle;Max_cycle;Signal;HPM_P1;HPM_P2
2023/05/17 00:01:16;;;;;;;22.23;17.60;;;;;;;15.99;68.53;94364.38;5068654;28;20055;-79
2023/05/17 00:03:41;;;;;;;20.52;17.05;;;;;;;15.98;68.68;94380.25;5088302;28;20028;-80
2023/05/17 00:06:07;;;;;;;22.50;17.42;;;;;;;15.97;68.64;94369.66;5086652;28;20032;-79
2023/05/17 00:08:32;;;;;;;20.40;16.73;;;;;;;15.93;68.63;94367.84;5086042;28;20116;-79
2023/05/17 00:10:58;;;;;;;25.90;17.30;;;;;;;15.87;68.80;94380.13;5087088;28;20020;-79
2023/05/17 00:13:23;;;;;;;21.48;17.48;;;;;;;15.82;69.01;94381.56;5068785;28;20478;-80
2023/05/17 00:15:48;;;;;;;25.38;16.63;;;;;;;15.76;68.72;94383.50;5070150;28;20430;-80
2023/05/17 00:18:14;;;;;;;21.73;17.70;;;;;;;15.76;69.04;94383.50;5085363;28;20024;-79
2023/05/17 00:20:39;;;;;;;21.33;15.27;;;;;;;15.75;68.98;94375.69;5088207;28;20108;-79
2023/05/17 00:23:05;;;;;;;19.13;15.50;;;;;;;15.75;68.82;94375.69;5088730;28;20043;-79
2023/05/17 00:25:30;;;;;;;20.85;16.15;;;;;;;15.73;68.94;94380.94;5096628;28;20020;-79
2023/05/17 00:27:56;;;;;;;22.13;16.23;;;;;;;15.71;68.81;94378.66;5088276;28;20062;-79
2023/05/17 00:30:21;;;;;;;20.45;15.63;;;;;;;15.70;68.89;94377.13;5068267;28;20055;-80
2023/05/17 00:32:47;;;;;;;20.73;16.23;;;;;;;15.69;68.85;94372.84;5086830;28;20032;-79
2023/05/17 00:35:13;;;;;;;17.55;15.18;;;;;;;15.64;68.88;94370.75;5086573;28;20054;-79
2023/05/17 00:37:38;;;;;;;18.38;14.63;;;;;;;15.62;68.54;94362.13;5088077;28;20027;-79
2023/05/17 00:40:04;;;;;;;20.17;15.15;;;;;;;15.57;68.54;94368.38;5086852;28;20479;-80
2023/05/17 00:42:30;;;;;;;22.27;14.40;;;;;;;15.56;68.64;94367.59;5087482;28;20452;-79
2023/05/17 00:44:55;;;;;;;17.50;13.82;;;;;;;15.53;68.69;94368.56;5086284;28;20028;-79
2023/05/17 00:47:21;;;;;;;15.82;13.93;;;;;;;15.51;68.60;94373.06;5085428;28;20028;-79
2023/05/17 00:49:46;;;;;;;16.23;12.93;;;;;;;15.48;68.41;94382.31;5086575;28;20048;-79
2023/05/17 00:52:12;;;;;;;14.48;12.98;;;;;;;15.44;68.30;94384.56;5085060;28;20035;-79
2023/05/17 00:54:38;;;;;;;16.77;12.55;;;;;;;15.37;68.61;94374.66;5073454;28;20027;-80
2023/05/17 00:57:05;;;;;;;15.05;12.90;;;;;;;15.35;68.47;94377.13;5092519;28;20028;-80
2023/05/17 00:59:30;;;;;;;18.10;13.23;;;;;;;15.33;68.70;94379.59;5086484;28;20483;-79
2023/05/17 01:01:55;;;;;;;17.70;12.65;;;;;;;15.19;68.75;94389.47;5085628;28;20347;-79
2023/05/17 01:04:21;;;;;;;16.00;13.93;;;;;;;15.13;69.19;94383.06;5087186;28;20496;-79
2023/05/17 01:06:46;;;;;;;18.58;13.13;;;;;;;15.11;69.30;94385.56;5086386;28;20035;-79
2023/05/17 01:09:12;;;;;;;17.98;14.63;;;;;;;15.06;69.27;94383.47;5085291;28;20029;-81
2023/05/17 01:11:47;;;;;;;18.80;13.98;;;;;;;14.99;69.82;94387.41;5087756;28;20032;-81
2023/05/17 01:14:43;;;;;;;16.33;13.70;;;;;;;15.01;69.46;94384.91;5086304;28;20035;-81
2023/05/17 01:17:16;;;;;;;20.08;13.77;;;;;;;15.01;69.40;94384.91;5085638;28;20036;-79
2023/05/17 01:19:48;;;;;;;17.67;13.65;;;;;;;15.01;69.52;94375.84;5094808;28;20030;-79
2023/05/17 01:22:13;;;;;;;17.45;13.27;;;;;;;15.01;69.14;94370.31;5088420;28;20502;-79
2023/05/17 01:24:48;;;;;;;16.20;14.02;;;;;;;14.99;69.15;94373.56;5090209;28;20032;-79
2023/05/17 01:27:14;;;;;;;17.42;14.93;;;;;;;14.88;69.73;94378.91;5088841;28;20127;-79
2023/05/17 01:29:42;;;;;;;19.33;14.15;;;;;;;14.75;70.10;94376.44;5090231;28;20040;-79
2023/05/17 01:32:07;;;;;;;19.98;14.23;;;;;;;14.70;70.21;94371.56;5089228;28;20077;-80
2023/05/17 01:34:34;;;;;;;21.52;14.30;;;;;;;14.49;70.65;94378.25;5072891;28;20208;-79
2023/05/17 01:36:59;;;;;;;17.50;13.27;;;;;;;14.52;70.52;94380.06;5091326;28;20031;-78
2023/05/17 01:39:25;;;;;;;17.55;13.63;;;;;;;14.43;70.91;94372.56;5088583;28;20020;-81
2023/05/17 01:41:57;;;;;;;18.23;13.40;;;;;;;14.42;70.89;94376.59;5089892;28;20036;-79
2023/05/17 01:44:28;;;;;;;19.67;13.98;;;;;;;14.44;70.56;94387.16;5089879;28;20024;-79
2023/05/17 01:46:59;;;;;;;19.98;13.90;;;;;;;14.46;70.57;94385.47;5091397;28;20381;-79
2023/05/17 01:49:36;;;;;;;19.00;13.57;;;;;;;14.50;70.42;94385.28;5071618;28;20023;-79
2023/05/17 01:52:40;;;;;;;21.10;14.23;;;;;;;14.42;70.69;94382.13;5090599;28;20086;-79
2023/05/17 01:55:10;;;;;;;16.95;13.25;;;;;;;14.46;70.34;94388.22;5073181;28;20040;-80
2023/05/17 01:57:36;;;;;;;17.30;13.00;;;;;;;14.46;70.08;94387.47;5088135;28;20544;-80
2023/05/17 02:00:10;;;;;;;18.17;12.77;;;;;;;14.47;69.83;94377.97;5090170;28;20036;-80
2023/05/17 02:02:36;;;;;;;19.55;13.57;;;;;;;14.46;69.94;94382.69;5097114;28;20052;-80
2023/05/17 02:05:01;;;;;;;22.10;14.20;;;;;;;14.46;69.83;94382.69;5090524;28;20039;-80
2023/05/17 02:07:27;;;;;;;17.25;13.75;;;;;;;14.49;69.65;94381.00;5089766;28;20020;-79
2023/05/17 02:09:52;;;;;;;16.92;12.55;;;;;;;14.48;69.86;94377.47;5088351;28;20115;-80
2023/05/17 02:12:17;;;;;;;19.85;13.70;;;;;;;14.48;69.56;94380.25;5091170;28;20027;-79
2023/05/17 02:14:43;;;;;;;16.73;13.52;;;;;;;14.47;69.74;94372.44;5091468;28;20020;-79
2023/05/17 02:17:08;;;;;;;15.20;13.18;;;;;;;14.47;69.85;94378.72;5096469;28;20395;-79
2023/05/17 02:19:34;;;;;;;18.17;13.43;;;;;;;14.45;69.92;94370.13;5088193;28;20016;-79
2023/05/17 02:21:59;;;;;;;15.43;13.20;;;;;;;14.40;70.09;94361.72;5089599;28;20028;-79
2023/05/17 02:24:25;;;;;;;16.95;13.10;;;;;;;14.41;69.83;94366.00;5089014;28;20551;-79
2023/05/17 02:26:51;;;;;;;15.70;12.38;;;;;;;14.40;69.83;94372.78;5089454;28;20042;-80
2023/05/17 02:29:16;;;;;;;16.10;12.55;;;;;;;14.35;69.52;94366.66;5090717;28;20110;-79
2023/05/17 02:31:41;;;;;;;16.30;12.55;;;;;;;14.35;69.20;94360.38;5088983;28;20026;-80
2023/05/17 02:34:07;;;;;;;14.77;11.63;;;;;;;14.32;69.10;94361.31;5088596;28;20016;-79
2023/05/17 02:36:32;;;;;;;22.13;13.10;;;;;;;14.29;69.24;94363.03;5087804;28;20103;-79
2023/05/17 02:38:58;;;;;;;15.10;12.00;;;;;;;14.28;69.35;94363.53;5090176;28;20042;-79
2023/05/17 02:41:23;;;;;;;17.52;12.90;;;;;;;14.26;69.24;94371.50;5088018;28;20032;-80
2023/05/17 02:43:49;;;;;;;15.60;11.65;;;;;;;14.22;69.04;94368.16;5089777;28;20024;-80
2023/05/17 02:46:14;;;;;;;17.23;12.45;;;;;;;14.18;68.98;94373.13;5090151;28;20024;-80
2023/05/17 02:48:40;;;;;;;20.25;13.02;;;;;;;14.15;69.17;94371.28;5087540;28;20463;-79
2023/05/17 02:51:05;;;;;;;16.17;12.65;;;;;;;14.12;69.22;94367.50;5090305;28;20127;-79
2023/05/17 02:53:31;;;;;;;17.23;12.23;;;;;;;14.13;69.21;94379.31;5088981;28;20020;-80
2023/05/17 02:55:59;;;;;;;13.55;11.98;;;;;;;14.11;69.31;94392.81;5088652;28;20024;-77
2023/05/17 02:58:26;;;;;;;18.65;12.70;;;;;;;14.07;69.28;94393.00;5088891;28;20493;-80
2023/05/17 03:00:52;;;;;;;14.85;11.65;;;;;;;14.05;69.45;94403.78;5088075;28;20499;-79
2023/05/17 03:03:17;;;;;;;15.98;12.60;;;;;;;14.02;69.27;94413.00;5089521;28;20108;-80
2023/05/17 03:05:43;;;;;;;18.92;13.13;;;;;;;14.00;69.19;94407.19;5088076;28;20028;-79
2023/05/17 03:08:08;;;;;;;16.77;12.20;;;;;;;13.98;69.29;94418.72;5099618;28;20115;-80
2023/05/17 03:10:34;;;;;;;19.02;13.73;;;;;;;13.94;69.69;94411.84;5094185;28;20030;-80
2023/05/17 03:12:59;;;;;;;16.13;12.60;;;;;;;13.92;69.76;94426.13;5094223;28;20109;-79
2023/05/17 03:15:28;;;;;;;19.88;14.10;;;;;;;13.92;70.13;94412.31;5088884;28;20098;-78
2023/05/17 03:17:53;;;;;;;18.65;13.52;;;;;;;13.90;69.87;94417.53;5072208;28;20418;-79
2023/05/17 03:20:19;;;;;;;17.88;13.82;;;;;;;13.89;69.94;94424.31;5087538;28;20471;-79
2023/05/17 03:22:44;;;;;;;17.08;14.82;;;;;;;13.86;70.17;94422.47;5087646;28;20067;-79
2023/05/17 03:25:10;;;;;;;21.00;13.55;;;;;;;13.86;69.97;94419.72;5089647;28;20055;-79
2023/05/17 03:27:35;;;;;;;21.02;14.50;;;;;;;13.85;70.21;94422.97;5086851;28;20419;-79
2023/05/17 03:30:00;;;;;;;18.02;14.27;;;;;;;13.84;70.32;94416.66;5087957;28;20048;-79
2023/05/17 03:32:26;;;;;;;22.10;14.52;;;;;;;13.79;70.51;94411.78;5086155;28;20028;-79
2023/05/17 03:34:52;;;;;;;21.55;13.00;;;;;;;13.80;70.30;94402.25;5089222;28;20035;-79
2023/05/17 03:37:17;;;;;;;21.98;12.50;;;;;;;13.75;69.65;94405.66;5087113;28;20012;-80
2023/05/17 03:39:43;;;;;;;15.35;10.88;;;;;;;13.60;69.65;94393.81;5088222;28;20489;-80
2023/05/17 03:42:08;;;;;;;17.10;11.40;;;;;;;13.63;69.60;94401.13;5088381;28;20050;-80
2023/05/17 03:44:33;;;;;;;17.23;11.77;;;;;;;13.60;69.48;94399.34;5088526;28;20541;-80
2023/05/17 03:46:59;;;;;;;20.67;12.00;;;;;;;13.55;69.34;94417.31;5086847;28;20097;-80
2023/05/17 03:49:24;;;;;;;18.38;12.93;;;;;;;13.44;69.51;94409.53;5069873;28;20497;-80
2023/05/17 03:51:49;;;;;;;19.83;12.63;;;;;;;13.37;69.87;94404.38;5088682;28;20063;-80
2023/05/17 03:54:15;;;;;;;18.85;12.13;;;;;;;13.30;70.30;94404.69;5087593;28;20024;-80
2023/05/17 03:56:45;;;;;;;22.67;14.20;;;;;;;13.43;69.77;94413.53;5087512;28;20025;-80
2023/05/17 03:59:11;;;;;;;19.95;12.88;;;;;;;13.26;70.28;94413.16;5087531;28;20024;-80
2023/05/17 04:01:37;;;;;;;19.63;12.95;;;;;;;13.26;70.38;94423.44;5088160;28;20146;-80
2023/05/17 04:04:03;;;;;;;19.83;12.73;;;;;;;13.23;70.37;94427.88;5088536;28;20419;-80
2023/05/17 04:06:29;;;;;;;23.60;12.73;;;;;;;13.25;70.68;94422.66;5098125;28;20032;-80
2023/05/17 04:08:54;;;;;;;17.25;11.60;;;;;;;13.35;70.26;94428.88;5089225;28;20033;-79
2023/05/17 04:11:22;;;;;;;18.42;13.02;;;;;;;13.46;70.10;94428.38;5087153;28;20047;-79
2023/05/17 04:13:48;;;;;;;17.58;12.45;;;;;;;13.58;69.76;94432.91;5092684;28;20024;-79
2023/05/17 04:16:13;;;;;;;18.10;12.93;;;;;;;13.69;70.11;94424.88;5087030;28;20051;-79
2023/05/17 04:18:39;;;;;;;23.15;13.23;;;;;;;13.77;70.07;94426.06;5087241;28;20024;-79
2023/05/17 04:21:05;;;;;;;19.40;13.20;;;;;;;13.86;69.69;94430.75;5086162;28;20437;-79
2023/05/17 04:23:32;;;;;;;18.83;12.55;;;;;;;13.94;69.63;94422.91;5086474;28;20016;-79
2023/05/17 04:25:58;;;;;;;20.73;12.63;;;;;;;13.93;69.11;94429.66;5069998;28;20032;-79
2023/05/17 04:28:24;;;;;;;20.75;13.25;;;;;;;13.89;68.81;94427.06;5086828;28;20640;-79
2023/05/17 04:30:51;;;;;;;22.95;13.55;;;;;;;13.98;68.97;94431.75;5086671;28;20039;-80
2023/05/17 04:33:17;;;;;;;20.05;13.70;;;;;;;14.00;69.02;94437.59;5086479;28;20448;-80
2023/05/17 04:35:42;;;;;;;17.45;13.60;;;;;;;14.00;68.64;94434.84;5087112;28;20082;-79
2023/05/17 04:38:08;;;;;;;21.35;14.30;;;;;;;14.04;68.52;94432.63;5086878;28;20021;-81
2023/05/17 04:40:34;;;;;;;20.30;13.30;;;;;;;14.12;68.32;94431.06;5087263;28;20024;-81
2023/05/17 04:43:00;;;;;;;22.45;14.68;;;;;;;14.19;68.57;94433.47;5070289;28;20039;-81
2023/05/17 04:45:25;;;;;;;23.58;15.88;;;;;;;14.29;68.67;94429.38;5086156;28;20019;-81
2023/05/17 04:47:52;;;;;;;21.33;16.30;;;;;;;14.39;68.69;94424.53;5070175;28;20024;-81
2023/05/17 04:50:17;;;;;;;23.10;17.25;;;;;;;14.43;68.44;94422.34;5086773;28;20787;-81
2023/05/17 04:52:43;;;;;;;26.02;17.33;;;;;;;14.52;68.25;94425.06;5086820;28;20024;-82
2023/05/17 04:55:09;;;;;;;22.55;16.10;;;;;;;14.60;68.33;94429.00;5085425;28;20073;-81
2023/05/17 04:57:34;;;;;;;25.90;16.42;;;;;;;14.68;68.19;94423.06;5088225;28;20065;-82
2023/05/17 05:00:08;;;;;;;23.48;17.23;;;;;;;14.75;68.03;94425.47;5068972;28;20077;-82
2023/05/17 05:02:35;;;;;;;20.67;16.38;;;;;;;14.73;66.59;94427.94;5099483;28;20052;-80
2023/05/17 05:05:01;;;;;;;26.20;16.13;;;;;;;14.47;67.03;94428.50;5087296;28;20107;-81
2023/05/17 05:07:26;;;;;;;20.25;15.98;;;;;;;14.39;67.00;94424.53;5084014;28;20335;-81
2023/05/17 05:09:51;;;;;;;23.27;15.70;;;;;;;14.58;66.38;94436.25;5087509;28;20040;-81
2023/05/17 05:12:17;;;;;;;20.75;15.23;;;;;;;14.71;66.50;94430.44;5086350;28;20031;-81
2023/05/17 05:14:44;;;;;;;27.30;17.98;;;;;;;14.83;66.72;94443.97;5086897;28;20498;-81
2023/05/17 05:17:11;;;;;;;24.70;16.85;;;;;;;14.88;65.97;94440.56;5084967;28;20028;-81
2023/05/17 05:19:36;;;;;;;23.02;15.75;;;;;;;14.91;65.47;94449.13;5092557;28;20096;-81
2023/05/17 05:22:01;;;;;;;26.25;16.75;;;;;;;14.99;65.69;94448.28;5069781;28;20123;-81
2023/05/17 05:24:27;;;;;;;20.90;15.43;;;;;;;14.97;64.74;94445.25;5086840;28;20024;-80
2023/05/17 05:26:52;;;;;;;22.73;15.57;;;;;;;14.95;64.52;94444.19;5086486;28;20388;-82
2023/05/17 05:29:18;;;;;;;25.80;15.05;;;;;;;15.01;64.47;94447.81;5085923;28;20418;-82
2023/05/17 05:31:43;;;;;;;24.25;14.45;;;;;;;15.11;64.22;94447.22;5086616;28;20102;-81
2023/05/17 05:34:09;;;;;;;22.35;14.40;;;;;;;15.04;64.06;94447.63;5085448;28;20119;-81
2023/05/17 05:36:34;;;;;;;18.65;13.68;;;;;;;15.25;64.03;94444.91;5086151;28;20051;-81
2023/05/17 05:39:00;;;;;;;23.42;15.40;;;;;;;15.45;64.74;94441.47;5085739;28;20024;-82
2023/05/17 05:41:25;;;;;;;27.63;16.42;;;;;;;15.61;64.84;94440.97;5085673;28;20028;-82
2023/05/17 05:43:51;;;;;;;26.92;16.80;;;;;;;15.69;64.68;94441.34;5087857;28;20032;-83
2023/05/17 05:46:16;;;;;;;26.23;14.98;;;;;;;15.82;63.59;94448.06;5086726;28;20024;-82
2023/05/17 05:48:42;;;;;;;20.02;14.35;;;;;;;15.94;62.84;94443.44;5086265;28;20506;-81
2023/05/17 05:51:07;;;;;;;23.85;14.63;;;;;;;16.07;63.05;94449.44;5086124;28;20032;-81
2023/05/17 05:53:33;;;;;;;17.40;13.02;;;;;;;16.01;61.38;94443.06;5069401;28;20063;-81
2023/05/17 05:55:58;;;;;;;17.75;13.02;;;;;;;16.02;61.28;94439.03;5087829;28;20116;-82
2023/05/17 05:58:24;;;;;;;20.92;12.65;;;;;;;15.99;60.77;94445.53;5098426;28;20395;-83
2023/05/17 06:00:50;;;;;;;19.40;13.15;;;;;;;15.86;61.44;94450.66;5068609;28;20527;-82
2023/05/17 06:03:15;;;;;;;22.00;13.02;;;;;;;16.08;61.86;94452.97;5068397;28;20036;-81
2023/05/17 06:05:41;;;;;;;19.58;13.30;;;;;;;16.18;61.78;94457.13;5085149;28;20118;-81
2023/05/17 06:08:06;;;;;;;26.00;14.48;;;;;;;16.37;62.31;94471.47;5084745;28;20504;-81
2023/05/17 06:10:32;;;;;;;17.60;11.52;;;;;;;16.30;59.89;94464.34;5072509;28;20036;-83
2023/05/17 06:12:57;;;;;;;22.13;11.80;;;;;;;16.37;59.81;94463.16;5089871;28;20178;-81
2023/05/17 06:15:23;;;;;;;20.98;12.00;;;;;;;16.51;60.58;94467.84;5072395;28;20028;-82
2023/05/17 06:17:48;;;;;;;19.38;12.80;;;;;;;16.72;60.76;94463.84;5071875;28;20486;-81
2023/05/17 06:20:15;;;;;;;16.67;12.30;;;;;;;16.89;60.36;94461.25;5089379;28;20112;-82
2023/05/17 06:22:41;;;;;;;18.58;12.93;;;;;;;16.94;59.84;94454.97;5072251;28;20067;-84
2023/05/17 06:25:07;;;;;;;19.00;10.40;;;;;;;17.04;57.10;94460.38;5094455;28;20020;-82
2023/05/17 06:27:33;;;;;;;15.75;10.93;;;;;;;17.20;57.68;94460.53;5091304;28;20042;-82
2023/05/17 06:29:59;;;;;;;16.98;10.75;;;;;;;17.25;56.69;94462.56;5087690;28;20139;-82
2023/05/17 06:32:24;;;;;;;13.75;9.70;;;;;;;17.14;56.08;94472.81;5089304;28;20048;-83
2023/05/17 06:34:50;;;;;;;14.65;9.85;;;;;;;17.13;55.72;94463.72;5088268;28;20018;-83
2023/05/17 06:37:16;;;;;;;14.10;9.55;;;;;;;17.14;55.60;94467.28;5089265;28;20085;-82
2023/05/17 06:39:41;;;;;;;18.35;10.35;;;;;;;17.12;56.77;94478.88;5089787;28;20089;-83
2023/05/17 06:42:07;;;;;;;15.60;9.25;;;;;;;17.38;56.14;94476.09;5071645;28;20024;-83
2023/05/17 06:44:34;;;;;;;16.35;9.63;;;;;;;17.40;55.76;94467.25;5088761;28;20032;-82
2023/05/17 06:47:02;;;;;;;14.52;8.07;;;;;;;17.47;54.77;94459.22;5088076;28;20024;-82
2023/05/17 06:49:28;;;;;;;15.88;9.07;;;;;;;17.28;55.18;94466.41;5089137;28;20039;-82
2023/05/17 06:51:54;;;;;;;17.63;9.15;;;;;;;17.45;55.83;94461.75;5089925;28;20036;-82
2023/05/17 06:54:19;;;;;;;16.63;9.63;;;;;;;17.62;56.23;94459.09;5101327;28;20398;-83
2023/05/17 06:56:45;;;;;;;14.90;9.13;;;;;;;17.77;56.16;94468.06;5089390;28;20027;-82
2023/05/17 06:59:11;;;;;;;14.73;8.80;;;;;;;17.68;55.68;94464.69;5090325;28;20035;-83
2023/05/17 07:01:36;;;;;;;15.30;9.18;;;;;;;17.93;56.25;94458.31;5088155;28;20039;-82
2023/05/17 07:04:02;;;;;;;17.38;9.63;;;;;;;18.15;56.91;94463.25;5089341;28;20028;-83
2023/05/17 07:06:27;;;;;;;14.00;8.70;;;;;;;18.25;54.50;94470.13;5071569;28;20518;-83
2023/05/17 07:08:53;;;;;;;14.10;8.63;;;;;;;18.25;54.32;94466.59;5088902;28;20520;-83
2023/05/17 07:11:18;;;;;;;13.63;9.00;;;;;;;18.30;54.80;94476.97;5089708;28;20031;-83
2023/05/17 07:13:44;;;;;;;11.95;8.00;;;;;;;18.21;54.62;94469.59;5086785;28;20174;-83
2023/05/17 07:16:09;;;;;;;13.32;8.70;;;;;;;18.32;55.04;94474.44;5089758;28;20080;-83
2023/05/17 07:18:35;;;;;;;21.52;9.32;;;;;;;18.45;54.36;94483.09;5086993;28;20042;-83
2023/05/17 07:21:00;;;;;;;13.57;8.82;;;;;;;18.52;54.79;94476.28;5087640;28;20409;-83
2023/05/17 07:23:26;;;;;;;14.75;8.98;;;;;;;18.76;55.35;94484.28;5088243;28;20081;-83
2023/05/17 07:25:51;;;;;;;15.75;8.20;;;;;;;18.80;52.68;94482.00;5086839;28;20124;-82
2023/05/17 07:28:16;;;;;;;15.95;9.15;;;;;;;18.71;53.08;94491.34;5071352;28;20032;-82
2023/05/17 07:30:42;;;;;;;15.25;8.30;;;;;;;18.62;52.80;94476.84;5089998;28;20039;-82
2023/05/17 07:33:07;;;;;;;16.55;8.75;;;;;;;18.75;54.53;94491.88;5091555;28;20020;-83
2023/05/17 07:35:33;;;;;;;14.98;7.90;;;;;;;18.84;52.68;94490.88;5087303;28;20036;-83
2023/05/17 07:37:58;;;;;;;17.15;8.45;;;;;;;18.89;53.22;94490.13;5087770;28;20023;-83
2023/05/17 07:40:23;;;;;;;13.52;7.97;;;;;;;18.91;52.84;94487.59;5088612;28;20024;-83
2023/05/17 07:42:50;;;;;;;15.32;9.02;;;;;;;18.64;53.22;94491.81;5070176;28;20035;-82
2023/05/17 07:45:15;;;;;;;15.07;9.02;;;;;;;18.86;53.73;94496.69;5089025;28;20478;-82
2023/05/17 07:47:41;;;;;;;13.55;9.15;;;;;;;19.00;54.03;94489.41;5092346;28;20031;-83
2023/05/17 07:50:06;;;;;;;15.40;7.68;;;;;;;18.98;52.67;94494.69;5103871;28;20024;-83
2023/05/17 07:52:32;;;;;;;15.88;9.20;;;;;;;18.74;53.20;94481.22;5070556;28;20336;-83
2023/05/17 07:54:57;;;;;;;18.90;10.20;;;;;;;18.94;54.12;94480.28;5088279;28;20568;-83
2023/05/17 07:57:22;;;;;;;18.55;11.18;;;;;;;19.12;53.93;94479.81;5089360;28;20031;-82
2023/05/17 07:59:48;;;;;;;18.88;10.55;;;;;;;19.31;53.41;94477.28;5088958;28;20494;-82
2023/05/17 08:02:13;;;;;;;17.75;9.95;;;;;;;19.39;53.80;94475.53;5070836;28;20130;-82
2023/05/17 08:04:40;;;;;;;20.42;11.32;;;;;;;19.49;53.94;94484.38;5069956;28;20017;-82
2023/05/17 08:07:06;;;;;;;18.20;10.45;;;;;;;19.73;53.21;94483.94;5087713;28;20474;-83
2023/05/17 08:09:31;;;;;;;13.82;9.60;;;;;;;19.82;51.95;94478.84;5086384;28;20027;-83
2023/05/17 08:11:56;;;;;;;15.00;9.25;;;;;;;20.11;51.47;94477.53;5088892;28;20097;-84
2023/05/17 08:14:22;;;;;;;16.88;8.55;;;;;;;20.04;49.97;94492.00;5086456;28;20051;-83
2023/05/17 08:16:50;;;;;;;16.85;8.90;;;;;;;19.77;50.83;94490.00;5086987;28;20487;-83
2023/05/17 08:19:17;;;;;;;14.98;8.13;;;;;;;19.41;51.33;94475.78;5087881;28;20020;-82
2023/05/17 08:21:43;;;;;;;14.60;8.80;;;;;;;19.65;51.64;94477.34;5087144;28;20020;-82
2023/05/17 08:24:08;;;;;;;15.48;9.50;;;;;;;19.89;52.01;94486.69;5086709;28;20035;-84
2023/05/17 08:26:34;;;;;;;15.27;9.18;;;;;;;20.05;51.90;94476.03;5086333;28;20028;-82
2023/05/17 08:29:01;;;;;;;17.23;9.85;;;;;;;20.25;50.91;94475.72;5070060;28;20055;-83
2023/05/17 08:31:27;;;;;;;16.25;9.85;;;;;;;20.21;51.18;94475.22;5085787;28;20025;-83
2023/05/17 08:33:54;;;;;;;18.13;10.48;;;;;;;20.42;51.19;94475.69;5088116;28;20425;-83
2023/05/17 08:36:19;;;;;;;14.93;9.43;;;;;;;20.48;50.56;94464.53;5088573;28;20071;-83
2023/05/17 08:38:45;;;;;;;15.13;9.32;;;;;;;20.74;49.94;94478.13;5095743;28;20016;-84
2023/05/17 08:41:12;;;;;;;17.45;9.68;;;;;;;20.87;49.40;94484.66;5086460;28;20077;-83
2023/05/17 08:43:37;;;;;;;16.38;9.75;;;;;;;20.81;48.50;94475.53;5091861;28;20055;-83
2023/05/17 08:46:03;;;;;;;18.00;9.55;;;;;;;20.67;49.00;94480.16;5098178;28;20430;-82
2023/05/17 08:48:29;;;;;;;16.35;10.60;;;;;;;20.83;49.54;94483.41;5085745;28;20424;-83
2023/05/17 08:50:56;;;;;;;18.02;10.63;;;;;;;20.85;50.15;94486.44;5086326;28;20510;-84
2023/05/17 08:53:23;;;;;;;15.02;9.43;;;;;;;20.93;48.47;94479.03;5086227;28;20071;-83
2023/05/17 08:55:49;;;;;;;17.58;9.57;;;;;;;20.69;48.71;94479.66;5086691;28;20055;-82
2023/05/17 08:58:18;;;;;;;19.52;10.20;;;;;;;20.91;49.42;94468.38;5086023;28;20415;-84
2023/05/17 09:00:45;;;;;;;13.65;8.80;;;;;;;20.94;48.16;94472.19;5068975;28;20020;-84
2023/05/17 09:03:16;;;;;;;17.75;9.80;;;;;;;21.04;48.31;94472.63;5086025;28;20406;-82
2023/05/17 09:05:42;;;;;;;13.85;7.95;;;;;;;21.23;48.04;94470.75;5085632;28;20507;-84
2023/05/17 09:08:07;;;;;;;14.13;8.52;;;;;;;21.40;47.58;94473.44;5087586;28;20097;-83
2023/05/17 09:10:33;;;;;;;13.85;8.30;;;;;;;21.52;47.44;94460.16;5086494;28;20040;-83
2023/05/17 09:12:58;;;;;;;12.23;7.97;;;;;;;21.30;46.68;94466.66;5087783;28;20024;-83
2023/05/17 09:15:25;;;;;;;13.68;7.10;;;;;;;21.01;46.87;94465.28;5086712;28;20023;-83
2023/05/17 09:17:52;;;;;;;14.95;8.40;;;;;;;20.74;47.75;94458.56;5085909;28;20162;-82
2023/05/17 09:20:32;;;;;;;15.00;7.72;;;;;;;20.74;47.91;94450.94;5068515;28;20039;-83
2023/05/17 09:22:58;;;;;;;17.40;8.68;;;;;;;20.39;49.42;94446.75;5085448;28;20065;-82
2023/05/17 09:25:24;;;;;;;17.48;8.77;;;;;;;20.75;49.14;94452.44;5087857;28;20028;-82
2023/05/17 09:27:53;;;;;;;15.32;8.18;;;;;;;20.88;49.56;94443.53;5085020;28;20032;-81
2023/05/17 09:30:19;;;;;;;17.42;9.30;;;;;;;21.12;49.18;94448.44;5085780;28;20125;-82
2023/05/17 09:32:48;;;;;;;15.63;9.35;;;;;;;21.14;49.33;94449.44;5085049;28;20024;-82
2023/05/17 09:35:13;;;;;;;12.88;8.23;;;;;;;21.27;48.68;94446.03;5085628;28;20074;-82
2023/05/17 09:37:41;;;;;;;17.05;8.73;;;;;;;21.45;48.68;94453.84;5087056;28;20107;-82
2023/05/17 09:40:09;;;;;;;15.48;8.88;;;;;;;21.33;47.78;94443.22;5100052;28;20024;-82
2023/05/17 09:42:38;;;;;;;15.70;8.73;;;;;;;21.33;48.61;94446.78;5095566;28;20474;-83
2023/05/17 09:45:04;;;;;;;14.57;8.23;;;;;;;21.62;48.10;94436.13;5094821;28;20032;-82
2023/05/17 09:47:30;;;;;;;14.55;8.43;;;;;;;21.84;46.15;94443.56;5091718;28;20081;-83
2023/05/17 09:49:57;;;;;;;14.70;8.43;;;;;;;21.59;46.63;94440.75;5089031;28;20063;-83
2023/05/17 09:52:23;;;;;;;16.35;9.18;;;;;;;21.34;47.61;94445.53;5089479;28;20016;-83
2023/05/17 09:54:53;;;;;;;13.38;8.88;;;;;;;20.76;48.71;94444.84;5089378;28;20556;-82
2023/05/17 09:57:18;;;;;;;15.15;9.40;;;;;;;20.25;50.13;94450.63;5072050;28;20020;-81
2023/05/17 09:59:45;;;;;;;13.73;9.18;;;;;;;20.37;49.83;94440.94;5090871;28;20558;-83
2023/05/17 10:02:21;;;;;;;14.63;7.65;;;;;;;20.03;49.91;94442.31;5089890;28;20078;-82
2023/05/17 10:04:49;;;;;;;17.20;8.10;;;;;;;19.75;50.94;94440.31;5091084;28;20063;-82
2023/05/17 10:07:18;;;;;;;11.57;7.47;;;;;;;19.90;51.31;94437.25;5088439;28;20035;-83
2023/05/17 10:09:45;;;;;;;13.20;6.97;;;;;;;19.87;50.60;94430.66;5089318;28;20069;-83
2023/05/17 10:12:14;;;;;;;17.05;7.13;;;;;;;19.81;51.03;94423.56;5089122;28;20165;-82
2023/05/17 10:14:42;;;;;;;19.48;8.25;;;;;;;19.71;51.22;94434.22;5089092;28;20032;-81
2023/05/17 10:17:09;;;;;;;15.23;7.63;;;;;;;19.74;51.28;94422.06;5089647;28;20036;-82
2023/05/17 10:19:35;;;;;;;22.27;7.97;;;;;;;19.65;51.52;94418.78;5089103;28;20052;-83
2023/05/17 10:22:01;;;;;;;17.00;7.95;;;;;;;19.73;51.08;94412.19;5089497;28;20024;-83
2023/05/17 10:24:29;;;;;;;15.68;6.82;;;;;;;19.57;51.45;94408.13;5088428;28;20020;-82
2023/05/17 10:26:55;;;;;;;15.75;6.78;;;;;;;19.57;51.78;94401.78;5072410;28;20044;-82
2023/05/17 10:29:22;;;;;;;13.40;7.75;;;;;;;19.61;51.75;94397.50;5088321;28;20028;-82
2023/05/17 10:31:51;;;;;;;20.60;6.82;;;;;;;19.60;51.95;94392.41;5089154;28;20020;-82
2023/05/17 10:34:18;;;;;;;16.63;5.90;;;;;;;19.47;51.07;94389.38;5092813;28;20157;-83
2023/05/17 10:36:44;;;;;;;14.48;5.82;;;;;;;19.33;50.57;94386.34;5098993;28;20028;-82
2023/05/17 10:39:09;;;;;;;13.93;6.15;;;;;;;19.20;50.87;94371.41;5089156;28;20388;-83
2023/05/17 10:41:38;;;;;;;15.35;6.25;;;;;;;19.07;51.60;94363.56;5087680;28;20024;-82
2023/05/17 10:44:06;;;;;;;13.18;6.10;;;;;;;19.02;52.15;94350.38;5089095;28;20028;-82
2023/05/17 10:46:32;;;;;;;12.25;6.18;;;;;;;19.14;51.55;94345.56;5089255;28;20431;-82
2023/05/17 10:48:59;;;;;;;11.75;7.13;;;;;;;19.06;51.88;94323.81;5089259;28;20044;-83
2023/05/17 10:51:30;;;;;;;15.80;6.70;;;;;;;19.18;52.19;94315.44;5072557;28;20030;-82
2023/05/17 10:54:01;;;;;;;16.48;7.53;;;;;;;19.30;52.02;94311.38;5088334;28;20025;-82
2023/05/17 10:56:29;;;;;;;16.60;6.38;;;;;;;19.41;51.61;94310.59;5088490;28;20288;-84
2023/05/17 10:59:13;;;;;;;12.93;5.63;;;;;;;19.32;50.79;94308.81;5087957;28;20508;-83
2023/05/17 11:01:53;;;;;;;13.82;6.25;;;;;;;19.24;50.97;94296.69;5089228;28;20044;-82
2023/05/17 11:04:26;;;;;;;18.00;6.80;;;;;;;19.12;51.64;94295.94;5089499;28;20081;-82
2023/05/17 11:06:53;;;;;;;19.20;7.75;;;;;;;19.28;52.18;94300.72;5088053;28;20020;-83
2023/05/17 11:09:21;;;;;;;14.45;6.97;;;;;;;19.36;51.76;94309.31;5090257;28;20028;-82
2023/05/17 11:12:03;;;;;;;15.18;7.35;;;;;;;19.18;52.54;94310.63;5087406;28;20110;-83
2023/05/17 11:14:44;;;;;;;14.00;7.03;;;;;;;19.36;51.91;94312.88;5089511;28;20168;-82
2023/05/17 11:17:19;;;;;;;13.45;6.80;;;;;;;19.25;52.35;94320.47;5089145;28;20032;-82